Airfield :
LOGIN :

Register | Disclaimer

   EN    FR    IT 

 










Legend :    VFR   Marginal VFR   IFR   Intensive IFR   Very Intensive IFR
Visi :
Ceiling :
>= 8 km
>= 3000ft
5 to 8 km
1000 to 3000 ft
1500m to 5 km
500 to 1000 ft
800 to 1500m
200 to 500 ft
< 800m
< 200 ft
Symbols :   Thunderstorms  Fog  Heavy snow  Heavy precipitations  Wind > 20 kt
SIGMETs :     Misc.  Thunderstorms  Icing  Turbulence  Mountain Waves  Volcanic Ashes







- Airport Elevation : 7 ft
- IATA code : VCE


LIPZ - Marco Polo Int. Venezia

CURRENT METAR :
  • 221150Z 13008KT 100V160 9999 FEW020 17/12 Q1014 NOSIG

EXPIRED METARs :
  • 221120Z 15007KT 9999 SCT018 17/12 Q1015 NOSIG
  • 221050Z 13009KT 9999 SCT018 17/12 Q1015 NOSIG
  • 221020Z 13008KT 110V170 9999 SCT018 17/12 Q1015 NOSIG
  • 220950Z 12007KT 080V140 9999 SCT015 17/12 Q1015 NOSIG
  • 220920Z 09008KT 9999 FEW014 17/11 Q1015 NOSIG

TAF TAF LIPZ
Valid from the 22 at 12:00 until the 23 at 18:00 UTC


221100Z 2212/2318 12012KT 9000 SCT015 BKN030
BECMG 2220/2223 08015G25KT RA
TEMPO 2311/2318 4000 TSRA
No reported NOTAMs for that airfield.



MET'MAP, your aeronautical weather chart ! - Copyright ORBIFLY December 2007 - Disclaimer

ORBIFLY MET'MAP TEAM :

Programming & Development : Alexandra Zaïnal
Concept & Development : Baudouin d'Aumeries
Co-Development & Prog : Marc-Olivier Méhu
Technical & hardware support : Manuel Goepfert

Contact : metmap@orbifly.com




SOURCES & CREDITS :

   NOAA